This is the latest recevied weather packets stored in our database for station/object KE0YJJ-14. If no packets are shown the sender has not sent any weather packets the latest 10 day(s).
| Time | Temp. | Humidity | Pressure | Rain* | Wind** | Luminosity | Snow |
|---|---|---|---|---|---|---|---|
| 1777997778 | 8.89° C | 36% | - | 0 mm | - | - | - |
| 1777997475 | 7.78° C | 36% | - | 0 mm | - | - | - |
| 1777997172 | 8.33° C | 36% | - | 0 mm | - | - | - |
| 1777996869 | 8.33° C | 35% | - | 0 mm | - | - | - |
| 1777996566 | 8.89° C | 33% | - | 0 mm | - | - | - |
| 1777996262 | 8.33° C | 33% | - | 0 mm | - | - | - |
| 1777995958 | 7.78° C | 34% | - | 0 mm | - | - | - |
| 1777995654 | 7.78° C | 37% | - | 0 mm | - | - | - |
| 1777995352 | 7.78° C | 36% | - | 0 mm | - | - | - |
| 1777995049 | 7.22° C | 37% | - | 0 mm | - | - | - |
| 1777994746 | 8.33° C | 34% | - | 0 mm | - | - | - |
| 1777994441 | 7.22° C | 38% | - | 0 mm | - | - | - |
| 1777994136 | 7.22° C | 36% | - | 0 mm | - | - | - |
| 1777993835 | 7.22° C | 37% | - | 0 mm | - | - | - |
| 1777993531 | 7.22° C | 37% | - | 0 mm | - | - | - |
| 1777993227 | 7.78° C | 37% | - | 0 mm | - | - | - |
| 1777992923 | 7.22° C | 37% | - | 0 mm | - | - | - |
| 1777992622 | 7.22° C | 36% | - | 0 mm | - | - | - |
| 1777992319 | 6.67° C | 36% | - | 0 mm | - | - | - |
| 1777992016 | 7.22° C | 37% | - | 0 mm | - | - | - |
| 1777991714 | 6.67° C | 39% | - | 0 mm | - | - | - |
| 1777991411 | 6.67° C | 38% | - | 0 mm | - | - | - |
| 1777991108 | 6.67° C | 38% | - | 0 mm | - | - | - |
| 1777990805 | 6.11° C | 41% | - | 0 mm | - | - | - |
| 1777990502 | 6.67° C | 41% | - | 0 mm | - | - | - |
* Rain latest hour (hover to see other rain measurements)
** Current wind speed in m/s (hover to see current wind gust speed)